Time;durP1;ratioP1;P1;durP2;ratioP2;P2;SDS_P1;SDS_P2;PMS_P1;PMS_P2;Temp;Humidity;BMP_temperature;BMP_pressure;BME280_temperature;BME280_humidity;BME280_pressure;Samples;Min_cycle;Max_cycle;Signal;HPM_P1;HPM_P2
2022/05/11 00:00:18;;;;;;;3.47;3.20;;;19.60;99.90;;;;;;5033937;28;20193;-67
2022/05/11 00:02:44;;;;;;;4.53;4.23;;;19.50;99.90;;;;;;5034568;28;20187;-67
2022/05/11 00:05:12;;;;;;;4.60;4.20;;;19.30;99.90;;;;;;5033879;28;20932;-67
2022/05/11 00:07:38;;;;;;;4.50;4.10;;;19.10;99.90;;;;;;5033996;28;20417;-67
2022/05/11 00:10:11;;;;;;;4.67;4.27;;;19.00;99.90;;;;;;5033923;28;20496;-68
2022/05/11 00:12:38;;;;;;;4.40;4.00;;;18.90;99.90;;;;;;5033913;28;20255;-68
2022/05/11 00:15:04;;;;;;;5.10;4.60;;;18.80;99.90;;;;;;5033752;28;20407;-68
2022/05/11 00:17:30;;;;;;;4.30;3.63;;;18.70;99.90;;;;;;5033810;28;20417;-67
2022/05/11 00:19:55;;;;;;;4.07;3.73;;;18.60;99.90;;;;;;5033545;28;20501;-67
2022/05/11 00:22:20;;;;;;;5.30;4.80;;;18.50;99.90;;;;;;5034042;28;20264;-69
2022/05/11 00:24:46;;;;;;;4.87;4.47;;;18.50;99.90;;;;;;5033596;28;20689;-68
2022/05/11 00:27:11;;;;;;;4.30;3.93;;;18.40;99.90;;;;;;5033371;28;20535;-68
2022/05/11 00:29:37;;;;;;;5.57;4.50;;;18.20;99.90;;;;;;5032262;28;20167;-68
2022/05/11 00:32:02;;;;;;;4.73;4.33;;;18.20;99.90;;;;;;5033357;28;20190;-68
2022/05/11 00:34:28;;;;;;;5.03;4.53;;;18.10;99.90;;;;;;5033321;28;20685;-69
2022/05/11 00:36:53;;;;;;;4.90;4.50;;;18.10;99.90;;;;;;5033304;28;20181;-68
2022/05/11 00:39:19;;;;;;;5.33;4.63;;;18.00;99.90;;;;;;5032875;28;20209;-68
2022/05/11 00:41:44;;;;;;;4.77;4.37;;;18.00;99.90;;;;;;5032488;28;20201;-69
2022/05/11 00:44:12;;;;;;;5.40;4.73;;;18.00;99.90;;;;;;5033247;28;20608;-69
2022/05/11 00:46:43;;;;;;;4.90;3.83;;;17.90;99.90;;;;;;5033161;28;20243;-68
2022/05/11 00:49:33;;;;;;;4.70;4.30;;;17.80;99.90;;;;;;5033252;28;20880;-68
2022/05/11 00:52:07;;;;;;;4.50;4.07;;;17.80;99.90;;;;;;5033254;28;20943;-68
2022/05/11 00:54:38;;;;;;;4.90;3.43;;;17.70;99.90;;;;;;5033097;28;20407;-68
2022/05/11 00:57:09;;;;;;;4.97;3.73;;;17.70;99.90;;;;;;5033005;28;20424;-68
2022/05/11 00:59:38;;;;;;;4.20;3.47;;;17.70;99.90;;;;;;5033094;28;20407;-68
2022/05/11 01:02:06;;;;;;;4.13;3.73;;;17.60;99.90;;;;;;5032834;28;20463;-69
2022/05/11 01:04:35;;;;;;;5.10;4.57;;;17.60;99.90;;;;;;5033163;28;20458;-69
2022/05/11 01:07:02;;;;;;;4.07;3.70;;;17.60;99.90;;;;;;5033032;28;20408;-69
2022/05/11 01:09:27;;;;;;;4.00;3.70;;;17.50;99.90;;;;;;5032936;28;20498;-68
2022/05/11 01:11:57;;;;;;;4.30;3.87;;;17.50;99.90;;;;;;5032636;28;20523;-68
2022/05/11 01:14:27;;;;;;;4.40;4.00;;;17.50;99.90;;;;;;5032771;28;20269;-68
2022/05/11 01:16:54;;;;;;;7.23;4.07;;;17.50;99.90;;;;;;5031425;28;20471;-68
2022/05/11 01:19:28;;;;;;;3.40;3.20;;;17.50;99.90;;;;;;5032563;28;20466;-68
2022/05/11 01:22:03;;;;;;;4.17;3.77;;;17.50;99.90;;;;;;5032606;28;20600;-68
2022/05/11 01:24:36;;;;;;;4.30;3.90;;;17.40;99.90;;;;;;5032600;28;20521;-66
2022/05/11 01:27:28;;;;;;;4.17;3.87;;;17.40;99.90;;;;;;5032310;28;20409;-67
2022/05/11 01:29:56;;;;;;;4.87;4.20;;;17.40;99.90;;;;;;5032323;28;20406;-67
2022/05/11 01:32:23;;;;;;;6.53;5.23;;;17.40;99.90;;;;;;5032338;28;20431;-67
2022/05/11 01:34:54;;;;;;;9.87;3.93;;;17.50;99.90;;;;;;5032377;28;20415;-67
2022/05/11 01:37:19;;;;;;;4.27;3.90;;;17.50;99.90;;;;;;5014526;28;20430;-67
2022/05/11 01:39:45;;;;;;;4.30;3.90;;;17.50;99.90;;;;;;5032094;28;20408;-68
2022/05/11 01:42:11;;;;;;;4.27;3.87;;;17.40;99.90;;;;;;5031798;28;20213;-67
2022/05/11 01:44:37;;;;;;;4.90;4.43;;;17.50;99.90;;;;;;5031909;28;20161;-67
2022/05/11 01:47:02;;;;;;;3.40;3.10;;;17.50;99.90;;;;;;5031996;28;20404;-67
2022/05/11 01:49:28;;;;;;;5.03;4.53;;;17.50;99.90;;;;;;5032015;28;20169;-67
2022/05/11 01:51:54;;;;;;;3.60;3.30;;;17.40;99.90;;;;;;5031656;28;20188;-67
2022/05/11 01:54:20;;;;;;;3.90;3.50;;;17.40;99.90;;;;;;5031811;28;20202;-67
2022/05/11 01:56:45;;;;;;;5.00;3.80;;;17.30;99.90;;;;;;5031717;28;20216;-67
2022/05/11 01:59:11;;;;;;;5.30;4.70;;;17.30;99.90;;;;;;5031886;28;20215;-67
2022/05/11 02:01:40;;;;;;;4.23;3.83;;;17.30;99.90;;;;;;5031520;28;20204;-68
2022/05/11 02:07:49;;;;;;;4.43;3.97;;;17.30;99.90;;;;;;5031745;28;20173;-68
2022/05/11 02:09:35;;;;;;;5.00;3.70;;;17.30;99.90;;;;;;5031619;28;20470;-68
2022/05/11 02:12:00;;;;;;;4.07;3.70;;;17.30;99.90;;;;;;5031382;28;20916;-68
2022/05/11 02:14:26;;;;;;;3.53;3.23;;;17.30;99.90;;;;;;5031964;28;20177;-68
2022/05/11 02:16:51;;;;;;;4.80;3.97;;;17.40;99.90;;;;;;5031660;28;20177;-68
2022/05/11 02:19:17;;;;;;;4.47;4.07;;;17.40;99.90;;;;;;5031706;28;20220;-68
2022/05/11 02:21:42;;;;;;;6.07;4.13;;;17.30;99.90;;;;;;5031185;28;20515;-68
2022/05/11 02:24:08;;;;;;;4.37;4.03;;;17.30;99.90;;;;;;5031292;28;20409;-68
2022/05/11 02:26:33;;;;;;;5.87;4.30;;;17.30;99.90;;;;;;5031303;28;20165;-68
2022/05/11 02:28:59;;;;;;;5.67;4.10;;;17.30;99.90;;;;;;5031463;28;20170;-68
2022/05/11 02:31:24;;;;;;;5.67;5.07;;;17.30;99.90;;;;;;5031120;28;20658;-67
2022/05/11 02:33:50;;;;;;;5.03;4.53;;;17.30;99.90;;;;;;5031244;28;20208;-68
2022/05/11 02:36:15;;;;;;;5.03;3.93;;;17.20;99.90;;;;;;5031107;28;20168;-67
2022/05/11 02:38:42;;;;;;;3.93;3.57;;;17.20;99.90;;;;;;5031163;28;20176;-68
2022/05/11 02:41:07;;;;;;;4.83;4.03;;;17.20;99.90;;;;;;5031285;28;20321;-68
2022/05/11 02:43:33;;;;;;;4.30;4.00;;;17.20;99.90;;;;;;5031482;28;20899;-67
2022/05/11 02:45:58;;;;;;;4.47;4.07;;;17.20;99.90;;;;;;5031343;28;20168;-68
2022/05/11 02:48:25;;;;;;;4.03;3.63;;;17.20;99.90;;;;;;5031181;28;20215;-68
2022/05/11 02:50:57;;;;;;;5.00;4.50;;;17.20;99.90;;;;;;5030903;28;20280;-67
2022/05/11 02:53:25;;;;;;;5.40;3.77;;;17.20;99.90;;;;;;5030941;28;20918;-67
2022/05/11 02:55:53;;;;;;;5.73;3.87;;;17.20;99.90;;;;;;5031028;28;20415;-68
2022/05/11 02:58:21;;;;;;;4.70;4.30;;;17.20;99.90;;;;;;5031120;28;20401;-68
2022/05/11 03:00:49;;;;;;;4.57;4.17;;;17.20;99.90;;;;;;5030724;28;20457;-68
2022/05/11 03:03:16;;;;;;;4.40;4.07;;;17.20;99.90;;;;;;5031945;28;20748;-68
2022/05/11 03:05:42;;;;;;;4.00;3.63;;;17.20;99.90;;;;;;5034994;28;20411;-67
2022/05/11 03:08:08;;;;;;;3.50;3.20;;;17.20;99.90;;;;;;5034969;28;20519;-68
2022/05/11 03:10:35;;;;;;;4.23;3.93;;;17.20;99.90;;;;;;5034962;28;20522;-67
2022/05/11 03:13:02;;;;;;;3.33;3.13;;;17.20;99.90;;;;;;5034869;28;20413;-67
2022/05/11 03:15:29;;;;;;;4.20;3.80;;;17.20;99.90;;;;;;5034787;28;20447;-67
2022/05/11 03:17:54;;;;;;;4.73;4.23;;;17.20;99.90;;;;;;5034686;28;20402;-70
2022/05/11 03:20:22;;;;;;;4.27;3.87;;;17.20;99.90;;;;;;5034816;28;20867;-68
2022/05/11 03:22:50;;;;;;;5.60;4.40;;;17.10;99.90;;;;;;5034963;28;20229;-68
2022/05/11 03:25:15;;;;;;;4.60;4.20;;;17.10;99.90;;;;;;5034771;28;20483;-67
2022/05/11 03:27:41;;;;;;;4.53;4.10;;;17.10;99.90;;;;;;5034800;28;20832;-67
2022/05/11 03:30:07;;;;;;;5.67;4.77;;;17.10;99.90;;;;;;5034586;28;20180;-68
2022/05/11 03:35:17;;;;;;;7.80;3.90;;;17.10;99.90;;;;;;5034483;28;20445;-68
2022/05/11 03:37:42;;;;;;;5.10;4.17;;;17.10;99.90;;;;;;5034407;28;20423;-68
2022/05/11 03:40:09;;;;;;;6.50;4.30;;;17.10;99.90;;;;;;5034564;28;20434;-68
2022/05/11 03:42:37;;;;;;;5.30;4.80;;;17.10;99.90;;;;;;5034805;28;20216;-68
2022/05/11 03:45:12;;;;;;;4.33;4.00;;;17.10;99.90;;;;;;5034412;28;20900;-68
2022/05/11 03:47:39;;;;;;;4.23;3.83;;;17.10;99.90;;;;;;5034647;28;20844;-68
2022/05/11 03:50:05;;;;;;;5.40;4.90;;;17.10;99.90;;;;;;5034307;28;20411;-68
2022/05/11 03:52:31;;;;;;;5.07;4.33;;;17.10;99.90;;;;;;5034170;28;20928;-68
2022/05/11 03:54:56;;;;;;;5.40;4.90;;;17.10;99.90;;;;;;5034175;28;20426;-68
2022/05/11 03:57:22;;;;;;;5.30;4.90;;;17.10;99.90;;;;;;5034140;28;20633;-68
2022/05/11 03:59:47;;;;;;;4.93;3.70;;;17.10;99.90;;;;;;5034046;28;20189;-69
2022/05/11 04:02:12;;;;;;;5.40;4.23;;;17.10;99.90;;;;;;5033770;28;20213;-68
2022/05/11 04:04:38;;;;;;;4.73;4.30;;;17.10;99.90;;;;;;5033695;28;20190;-69
2022/05/11 04:07:04;;;;;;;4.80;4.40;;;17.10;99.90;;;;;;5033870;28;20264;-68
2022/05/11 04:09:29;;;;;;;4.87;4.47;;;17.10;99.90;;;;;;5034190;28;20537;-69
2022/05/11 04:11:55;;;;;;;4.07;3.67;;;17.10;99.90;;;;;;5033739;28;20208;-69
2022/05/11 04:14:20;;;;;;;4.73;4.20;;;17.20;99.90;;;;;;5032828;28;20640;-68
2022/05/11 04:16:47;;;;;;;5.23;4.23;;;17.20;99.90;;;;;;5033446;28;20170;-69
2022/05/11 04:19:13;;;;;;;4.60;4.20;;;17.20;99.90;;;;;;5034079;28;20250;-69
2022/05/11 04:21:39;;;;;;;4.73;4.30;;;17.20;99.90;;;;;;5033829;28;20884;-67
2022/05/11 04:24:04;;;;;;;5.00;4.57;;;17.20;99.90;;;;;;5033557;28;20262;-68
2022/05/11 04:26:32;;;;;;;5.97;5.47;;;17.30;99.90;;;;;;5025951;28;20175;-67
2022/05/11 04:28:57;;;;;;;8.23;5.40;;;17.30;99.90;;;;;;5038274;28;20185;-67
2022/05/11 04:31:23;;;;;;;5.23;4.73;;;17.30;99.90;;;;;;5016626;28;20450;-68
2022/05/11 04:33:50;;;;;;;5.60;5.10;;;17.30;99.90;;;;;;5015097;28;20656;-68
2022/05/11 04:36:16;;;;;;;5.93;5.33;;;17.30;99.90;;;;;;5013822;28;20200;-68
2022/05/11 04:38:42;;;;;;;6.27;5.67;;;17.30;99.90;;;;;;5013948;28;20489;-68
2022/05/11 04:41:07;;;;;;;5.13;4.60;;;17.30;99.90;;;;;;5029594;28;20989;-68
2022/05/11 04:43:33;;;;;;;6.07;5.40;;;17.40;99.90;;;;;;5031926;28;20296;-68
2022/05/11 04:45:58;;;;;;;6.30;5.70;;;17.40;99.90;;;;;;5032928;28;20182;-68
2022/05/11 04:48:24;;;;;;;8.37;6.83;;;17.40;99.90;;;;;;5033418;28;20553;-68
2022/05/11 04:50:50;;;;;;;6.57;5.93;;;17.40;99.90;;;;;;5033298;28;20537;-68
2022/05/11 04:53:17;;;;;;;5.70;5.20;;;17.30;99.90;;;;;;5033083;28;20415;-68
2022/05/11 04:55:45;;;;;;;6.93;5.90;;;17.30;99.90;;;;;;5032794;28;20265;-68
2022/05/11 04:58:10;;;;;;;7.40;5.33;;;17.40;99.90;;;;;;5033143;28;20743;-67
2022/05/11 05:00:36;;;;;;;5.80;5.20;;;17.40;99.90;;;;;;5031461;28;20473;-68
2022/05/11 05:03:06;;;;;;;6.80;5.40;;;17.40;99.90;;;;;;5032872;28;20591;-69
2022/05/11 05:05:32;;;;;;;7.00;6.30;;;17.40;99.90;;;;;;5031964;28;20169;-69
2022/05/11 05:07:57;;;;;;;6.20;5.40;;;17.50;99.90;;;;;;5013238;28;21052;-68
2022/05/11 05:10:23;;;;;;;5.87;4.90;;;17.50;99.90;;;;;;5013298;28;20556;-69
2022/05/11 05:12:48;;;;;;;7.23;5.27;;;17.50;99.90;;;;;;5013284;28;20170;-69
2022/05/11 05:15:16;;;;;;;8.03;6.33;;;17.50;99.90;;;;;;5013314;28;20719;-69
2022/05/11 05:17:42;;;;;;;7.17;5.60;;;17.50;99.90;;;;;;5013185;28;20176;-69
2022/05/11 05:20:09;;;;;;;7.10;5.70;;;17.50;99.90;;;;;;5012977;28;20974;-69
2022/05/11 05:22:35;;;;;;;6.70;6.10;;;17.60;99.90;;;;;;5013355;28;20614;-69
2022/05/11 05:25:01;;;;;;;5.10;4.70;;;17.50;99.90;;;;;;5012742;28;20482;-69
2022/05/11 05:27:26;;;;;;;5.53;4.90;;;17.50;99.90;;;;;;5025897;28;20433;-69
2022/05/11 05:32:38;;;;;;;6.23;5.63;;;17.50;99.90;;;;;;5032570;28;20205;-68
2022/05/11 05:35:06;;;;;;;7.83;5.63;;;17.50;99.90;;;;;;5040141;28;20883;-69
2022/05/11 05:37:31;;;;;;;6.60;5.77;;;17.50;99.90;;;;;;5046915;28;20421;-68
2022/05/11 05:39:57;;;;;;;6.23;5.63;;;17.50;99.90;;;;;;5052243;28;20403;-68
2022/05/11 05:42:26;;;;;;;5.50;4.87;;;17.50;99.90;;;;;;5052020;28;20208;-68
2022/05/11 05:44:52;;;;;;;5.90;5.30;;;17.60;99.90;;;;;;5052024;28;20540;-68
2022/05/11 05:47:17;;;;;;;6.10;5.60;;;17.60;99.90;;;;;;5042758;28;20592;-68
2022/05/11 05:49:44;;;;;;;7.60;5.40;;;17.70;99.90;;;;;;5032008;28;20511;-69
2022/05/11 05:52:22;;;;;;;6.57;5.97;;;17.80;99.90;;;;;;5031308;28;20565;-69
2022/05/11 05:54:48;;;;;;;4.87;4.27;;;17.80;99.90;;;;;;5032078;28;20409;-69
2022/05/11 05:57:14;;;;;;;5.90;5.40;;;17.80;99.90;;;;;;5032344;28;20464;-69
2022/05/11 05:59:40;;;;;;;8.90;6.60;;;17.80;99.90;;;;;;5031964;28;20175;-69
2022/05/11 06:02:12;;;;;;;6.63;5.70;;;17.90;99.90;;;;;;5067641;23;20491;-70
2022/05/11 06:04:49;;;;;;;5.90;5.40;;;18.10;99.90;;;;;;5065473;28;20166;-69
2022/05/11 06:07:16;;;;;;;6.50;5.43;;;18.10;99.90;;;;;;5074058;28;20393;-70
2022/05/11 06:09:42;;;;;;;6.53;5.70;;;18.30;99.90;;;;;;5076268;28;20490;-70
2022/05/11 06:12:11;;;;;;;8.40;6.37;;;18.30;99.90;;;;;;5073421;28;20507;-70
2022/05/11 06:14:37;;;;;;;6.53;5.87;;;18.30;99.90;;;;;;5072588;28;20792;-70
2022/05/11 06:17:04;;;;;;;6.90;5.80;;;18.20;99.90;;;;;;5072161;28;20841;-70
2022/05/11 06:19:30;;;;;;;6.60;5.47;;;18.30;99.90;;;;;;5072261;28;20401;-69
2022/05/11 06:21:55;;;;;;;6.07;5.47;;;18.50;99.90;;;;;;5072203;28;20825;-71
2022/05/11 06:24:21;;;;;;;6.70;4.87;;;18.50;99.90;;;;;;5072219;28;20214;-71
2022/05/11 06:26:46;;;;;;;6.47;5.87;;;18.50;99.90;;;;;;5072363;28;20178;-70
2022/05/11 06:29:12;;;;;;;6.47;5.83;;;18.50;99.90;;;;;;5052220;28;20698;-71
2022/05/11 06:31:38;;;;;;;6.87;5.27;;;18.40;99.90;;;;;;5051876;28;20657;-71
2022/05/11 06:34:03;;;;;;;6.40;5.80;;;18.40;99.90;;;;;;5042117;28;20176;-70
2022/05/11 06:36:29;;;;;;;7.63;5.40;;;18.40;99.90;;;;;;5072008;28;20169;-70
2022/05/11 06:38:56;;;;;;;5.40;4.90;;;18.40;99.90;;;;;;5071602;28;20180;-70
2022/05/11 06:41:25;;;;;;;6.10;5.50;;;18.40;99.90;;;;;;5071790;28;20513;-70
2022/05/11 06:43:51;;;;;;;5.80;5.30;;;18.40;99.90;;;;;;5071999;28;20895;-70
2022/05/11 06:46:18;;;;;;;6.40;5.33;;;18.70;99.90;;;;;;5071717;28;20427;-70
2022/05/11 06:48:45;;;;;;;5.00;4.50;;;18.80;99.90;;;;;;5071844;28;21089;-70
2022/05/11 06:51:11;;;;;;;5.07;4.67;;;18.70;99.90;;;;;;5071987;28;20470;-70
2022/05/11 06:59:20;;;;;;;5.27;4.77;;;18.70;99.90;;;;;;5072250;28;20764;-70
2022/05/11 07:01:57;;;;;;;4.93;4.50;;;18.50;99.90;;;;;;5071544;28;20469;-70
2022/05/11 07:04:24;;;;;;;4.53;4.00;;;18.40;99.90;;;;;;5071748;28;20493;-70
2022/05/11 07:06:56;;;;;;;5.90;4.27;;;18.90;99.90;;;;;;5071682;28;20892;-69
2022/05/11 07:09:25;;;;;;;5.57;4.67;;;19.40;99.90;;;;;;5071837;28;20864;-70
2022/05/11 07:14:54;;;;;;;5.83;5.33;;;19.80;99.90;;;;;;5023954;28;20409;-69
2022/05/11 07:17:23;;;;;;;3.80;3.50;;;20.10;99.90;;;;;;5071400;28;20805;-70
2022/05/11 07:19:48;;;;;;;3.80;3.37;;;20.00;99.90;;;;;;5071470;28;20408;-70
2022/05/11 07:22:15;;;;;;;5.97;5.03;;;19.90;99.90;;;;;;5071303;28;20470;-68
2022/05/11 07:24:43;;;;;;;6.13;5.47;;;19.70;99.90;;;;;;5079569;28;20174;-69
2022/05/11 07:27:08;;;;;;;5.67;5.17;;;20.30;99.90;;;;;;5088694;28;20406;-71
2022/05/11 07:29:34;;;;;;;8.53;5.30;;;20.80;99.90;;;;;;5071503;28;20406;-69
2022/05/11 07:32:00;;;;;;;6.37;5.70;;;21.00;99.90;;;;;;5071211;28;20190;-69
2022/05/11 07:34:25;;;;;;;4.60;4.10;;;21.40;99.90;;;;;;5067832;28;20550;-70
2022/05/11 07:36:54;;;;;;;4.53;4.10;;;21.60;99.90;;;;;;5072195;28;20244;-69
2022/05/11 07:39:23;;;;;;;4.27;3.87;;;22.40;99.90;;;;;;5072378;28;20183;-68
2022/05/11 07:41:49;;;;;;;4.07;3.20;;;21.80;99.90;;;;;;5071119;28;20494;-72
2022/05/11 07:44:15;;;;;;;4.10;3.80;;;22.20;99.90;;;;;;5071345;28;20436;-71
2022/05/11 07:46:41;;;;;;;4.40;4.10;;;22.60;99.90;;;;;;5071284;28;20404;-69
2022/05/11 07:49:07;;;;;;;6.53;3.70;;;22.60;99.90;;;;;;5072080;28;20974;-69
2022/05/11 07:51:34;;;;;;;5.63;4.07;;;22.40;99.90;;;;;;5074914;28;20796;-70
2022/05/11 07:53:59;;;;;;;4.20;3.80;;;22.60;99.90;;;;;;5074982;28;20178;-68
2022/05/11 08:01:53;;;;;;;7.50;6.77;;;22.50;99.90;;;;;;5075249;28;20477;-68
2022/05/11 08:04:18;;;;;;;5.33;4.83;;;23.00;99.90;;;;;;5094998;28;20408;-69
2022/05/11 08:06:44;;;;;;;3.70;3.40;;;22.50;99.90;;;;;;5094965;28;20204;-69
2022/05/11 08:09:10;;;;;;;4.37;3.97;;;22.10;99.90;;;;;;5095089;28;20164;-70
2022/05/11 08:11:36;;;;;;;4.13;3.73;;;22.40;99.90;;;;;;5082837;28;20188;-69
2022/05/11 08:14:02;;;;;;;4.10;3.67;;;22.50;99.90;;;;;;5063675;28;20421;-68
2022/05/11 08:16:28;;;;;;;3.30;3.07;;;22.50;99.90;;;;;;5054439;28;20462;-68
2022/05/11 08:18:53;;;;;;;3.53;3.23;;;23.10;99.90;;;;;;5054760;28;20186;-69
2022/05/11 08:21:19;;;;;;;4.50;4.10;;;23.00;99.90;;;;;;5054463;28;20457;-69
2022/05/11 08:23:46;;;;;;;3.60;3.33;;;22.80;99.90;;;;;;5054553;28;20216;-68
2022/05/11 08:26:12;;;;;;;4.00;3.43;;;23.20;99.90;;;;;;5054453;28;20171;-69
2022/05/11 08:28:37;;;;;;;2.60;2.40;;;23.80;99.90;;;;;;5069746;28;20416;-69
2022/05/11 08:33:47;;;;;;;3.40;2.63;;;23.90;99.90;;;;;;5070352;28;20226;-69
2022/05/11 08:36:21;;;;;;;3.50;3.07;;;24.00;99.90;;;;;;5054305;28;20407;-69
2022/05/11 08:38:55;;;;;;;3.10;2.80;;;24.40;99.90;;;;;;5054017;28;20185;-71
2022/05/11 08:41:42;;;;;;;3.37;3.07;;;24.20;99.90;;;;;;5054201;28;20541;-67
2022/05/11 08:44:14;;;;;;;3.63;3.40;;;24.30;99.90;;;;;;5054094;28;20420;-69
2022/05/11 08:46:47;;;;;;;7.30;3.40;;;25.10;99.90;;;;;;5054071;28;20432;-68
2022/05/11 08:49:23;;;;;;;4.00;3.70;;;24.80;99.90;;;;;;5053951;28;20404;-68
2022/05/11 08:52:00;;;;;;;3.70;3.30;;;23.90;99.90;;;;;;5053760;28;20428;-68
2022/05/11 08:54:48;;;;;;;4.03;3.67;;;24.10;99.90;;;;;;5053909;28;20418;-68
2022/05/11 08:57:25;;;;;;;4.33;3.93;;;24.20;99.90;;;;;;5053895;28;20952;-68
2022/05/11 08:59:57;;;;;;;3.97;3.67;;;24.70;99.90;;;;;;5053675;28;20479;-68
2022/05/11 09:02:26;;;;;;;6.00;5.50;;;25.10;99.90;;;;;;5052961;28;20471;-68
2022/05/11 09:04:55;;;;;;;14.57;13.00;;;24.90;99.90;;;;;;5053637;28;20410;-69
2022/05/11 09:07:21;;;;;;;4.27;3.87;;;24.80;99.90;;;;;;5053846;28;20409;-69
2022/05/11 09:09:47;;;;;;;4.70;4.30;;;24.90;99.90;;;;;;5053773;28;20412;-69
2022/05/11 09:12:13;;;;;;;5.50;4.27;;;24.10;99.90;;;;;;5070005;28;20191;-69
2022/05/11 09:14:49;;;;;;;4.00;3.70;;;23.50;99.90;;;;;;5055814;28;20173;-69
2022/05/11 09:17:21;;;;;;;4.83;4.07;;;24.00;99.90;;;;;;5073873;28;20472;-69
2022/05/11 09:19:53;;;;;;;3.93;3.63;;;24.10;99.90;;;;;;5073568;28;20838;-69
2022/05/11 09:22:24;;;;;;;5.27;4.77;;;25.00;99.90;;;;;;5073210;28;20483;-69
2022/05/11 09:24:56;;;;;;;3.93;3.70;;;24.60;99.90;;;;;;5073292;28;20429;-69
2022/05/11 09:27:37;;;;;;;4.47;4.10;;;25.50;99.90;;;;;;5073258;28;20483;-69
2022/05/11 09:30:08;;;;;;;4.47;4.07;;;25.40;99.90;;;;;;5073373;28;20399;-68
2022/05/11 09:32:44;;;;;;;4.67;4.27;;;25.80;99.90;;;;;;5072978;28;20918;-68
2022/05/11 09:35:22;;;;;;;4.10;3.77;;;25.70;99.90;;;;;;5056805;28;20444;-68
2022/05/11 09:37:56;;;;;;;4.37;3.97;;;26.20;99.90;;;;;;5053100;28;20500;-69
2022/05/11 09:40:23;;;;;;;6.10;5.50;;;26.60;99.70;;;;;;5053073;28;20408;-69
2022/05/11 09:42:55;;;;;;;4.70;4.27;;;26.30;99.20;;;;;;5053240;28;20421;-73
2022/05/11 09:45:41;;;;;;;5.40;5.00;;;26.00;99.80;;;;;;5054964;28;20401;-69
2022/05/11 09:48:13;;;;;;;4.13;3.83;;;25.90;99.90;;;;;;5056977;28;20476;-69
2022/05/11 09:50:40;;;;;;;5.43;4.90;;;26.20;99.40;;;;;;5064625;28;20419;-69
2022/05/11 09:53:24;;;;;;;5.30;4.90;;;26.30;99.20;;;;;;5072710;28;20428;-68
2022/05/11 09:55:50;;;;;;;5.77;4.37;;;26.50;98.40;;;;;;5072594;28;20392;-69
2022/05/11 09:58:28;;;;;;;11.80;10.73;;;26.10;98.40;;;;;;5072543;28;20484;-73
2022/05/11 10:01:13;;;;;;;5.73;5.23;;;26.40;98.40;;;;;;5072327;28;21013;-69
2022/05/11 10:03:46;;;;;;;8.60;6.57;;;26.30;98.80;;;;;;5072544;28;20466;-69
2022/05/11 10:06:14;;;;;;;7.77;6.97;;;26.50;98.00;;;;;;5072429;28;20400;-69
2022/05/11 10:08:43;;;;;;;5.83;5.43;;;26.90;98.40;;;;;;5072404;28;20401;-69
2022/05/11 10:11:23;;;;;;;6.27;5.77;;;26.70;97.90;;;;;;5072428;28;20422;-68
2022/05/11 10:13:59;;;;;;;5.50;5.00;;;26.60;97.10;;;;;;5072288;28;20795;-69
2022/05/11 10:22:30;;;;;;;4.47;4.07;;;26.00;97.00;;;;;;5072153;28;20462;-68
2022/05/11 10:25:22;;;;;;;4.40;4.10;;;26.50;98.10;;;;;;5072147;28;20431;-68
2022/05/11 10:27:58;;;;;;;4.37;4.07;;;26.80;97.60;;;;;;5072093;28;20765;-68
2022/05/11 10:30:52;;;;;;;9.17;7.60;;;27.00;97.00;;;;;;5072222;28;20391;-68
2022/05/11 10:33:34;;;;;;;6.53;4.97;;;26.90;96.40;;;;;;5071162;28;20890;-68
2022/05/11 10:36:15;;;;;;;4.90;4.50;;;27.40;95.60;;;;;;5051965;28;20423;-69
2022/05/11 10:39:15;;;;;;;12.57;9.10;;;27.20;95.70;;;;;;5052217;28;20468;-69
2022/05/11 10:42:04;;;;;;;4.90;4.50;;;27.20;95.30;;;;;;5016081;28;20485;-69
2022/05/11 10:44:48;;;;;;;6.30;5.77;;;27.10;94.70;;;;;;5052095;28;20844;-69
2022/05/11 10:47:21;;;;;;;10.00;7.80;;;27.40;94.90;;;;;;5052124;28;20411;-70
2022/05/11 10:50:06;;;;;;;5.00;4.60;;;27.50;95.20;;;;;;5069045;28;20406;-70
2022/05/11 10:52:57;;;;;;;7.37;3.70;;;27.30;93.40;;;;;;5072720;28;20422;-68
2022/05/11 10:55:42;;;;;;;4.40;4.10;;;27.00;94.70;;;;;;5072383;28;20392;-69
2022/05/11 10:58:29;;;;;;;3.47;3.27;;;27.00;93.90;;;;;;5072502;28;20407;-70
2022/05/11 11:01:05;;;;;;;4.27;3.87;;;27.30;93.80;;;;;;5071752;28;20444;-69
2022/05/11 11:03:56;;;;;;;3.63;3.43;;;27.20;93.50;;;;;;5072045;28;20829;-69
2022/05/11 11:07:14;;;;;;;3.40;3.10;;;27.10;94.00;;;;;;5054020;28;20413;-68
2022/05/11 11:10:11;;;;;;;3.57;3.27;;;27.20;93.60;;;;;;5072227;28;20741;-70
2022/05/11 11:13:03;;;;;;;2.93;2.73;;;27.40;92.70;;;;;;5071355;28;20914;-70
2022/05/11 11:15:32;;;;;;;5.20;4.80;;;27.60;92.70;;;;;;5071937;28;20402;-71
2022/05/11 11:17:58;;;;;;;2.63;2.43;;;27.70;91.60;;;;;;5071136;28;20902;-69
2022/05/11 11:20:25;;;;;;;3.43;3.17;;;28.00;92.10;;;;;;5072041;28;20410;-70
2022/05/11 11:23:05;;;;;;;3.20;3.00;;;27.70;91.00;;;;;;5053874;28;20430;-70
2022/05/11 11:25:51;;;;;;;3.30;3.00;;;27.40;90.90;;;;;;5074698;28;20434;-71
2022/05/11 11:28:18;;;;;;;3.57;3.27;;;27.40;91.40;;;;;;5076206;28;20397;-69
2022/05/11 11:30:58;;;;;;;3.03;2.83;;;27.40;91.60;;;;;;5076258;28;20469;-70
2022/05/11 11:33:26;;;;;;;3.13;2.93;;;27.40;91.30;;;;;;5079788;28;20419;-69
2022/05/11 11:35:59;;;;;;;3.47;3.20;;;27.40;91.10;;;;;;5076561;28;20449;-70
2022/05/11 11:38:47;;;;;;;3.40;3.10;;;27.70;90.30;;;;;;5076986;28;20469;-69
2022/05/11 11:41:18;;;;;;;3.40;2.60;;;27.70;89.40;;;;;;5077211;28;20481;-71
2022/05/11 11:43:54;;;;;;;2.40;2.20;;;28.20;87.80;;;;;;5077627;28;20463;-70
2022/05/11 11:46:38;;;;;;;3.20;2.37;;;28.30;84.50;;;;;;5076778;28;20399;-69
2022/05/11 11:49:18;;;;;;;2.63;2.43;;;28.40;83.40;;;;;;5076994;28;20408;-71
2022/05/11 11:51:50;;;;;;;2.50;2.30;;;28.60;82.00;;;;;;5075334;28;20451;-71
2022/05/11 11:54:48;;;;;;;2.93;2.33;;;28.90;80.50;;;;;;5075889;28;20890;-71
2022/05/11 11:57:22;;;;;;;2.43;2.23;;;28.60;78.10;;;;;;5060677;28;20433;-70
2022/05/11 11:59:57;;;;;;;2.83;2.63;;;28.10;78.50;;;;;;5075462;28;20945;-70
2022/05/11 12:02:36;;;;;;;2.50;2.30;;;28.10;79.40;;;;;;5085487;23;20479;-70
2022/05/11 12:05:37;;;;;;;2.83;2.33;;;28.20;78.60;;;;;;5026258;28;20404;-71
2022/05/11 12:16:45;;;;;;;2.77;2.57;;;28.60;76.10;;;;;;5015038;28;20760;-71
2022/05/11 12:19:14;;;;;;;1.80;1.70;;;28.90;73.00;;;;;;5014706;28;20407;-71
2022/05/11 12:21:42;;;;;;;2.77;2.57;;;28.90;72.10;;;;;;5014405;28;20459;-71
2022/05/11 12:24:21;;;;;;;4.20;2.20;;;28.50;73.00;;;;;;5014554;28;20835;-70
2022/05/11 12:26:55;;;;;;;2.53;2.33;;;28.60;72.10;;;;;;5014404;28;20506;-71
2022/05/11 12:32:07;;;;;;;2.43;2.20;;;28.60;73.50;;;;;;5014288;28;20425;-71
2022/05/11 12:34:40;;;;;;;1.97;1.87;;;28.50;73.80;;;;;;5013260;28;20469;-72
2022/05/11 12:37:24;;;;;;;2.23;2.03;;;28.50;73.50;;;;;;5004776;28;20445;-72
2022/05/11 12:40:05;;;;;;;2.27;2.10;;;28.70;72.30;;;;;;4996416;28;20471;-71
2022/05/11 12:42:46;;;;;;;3.17;2.20;;;28.80;72.80;;;;;;5005441;28;20530;-70
2022/05/11 12:45:16;;;;;;;2.50;2.30;;;28.90;70.80;;;;;;5012140;28;20417;-70
2022/05/11 12:48:04;;;;;;;2.60;2.40;;;28.80;71.60;;;;;;5014289;28;20454;-72
2022/05/11 12:50:55;;;;;;;2.47;2.30;;;28.50;70.70;;;;;;5014179;28;20427;-71
2022/05/11 12:53:27;;;;;;;3.50;2.83;;;28.50;71.30;;;;;;5012079;28;20423;-71
2022/05/11 12:56:05;;;;;;;2.40;2.20;;;28.60;71.80;;;;;;5014052;28;20440;-70
2022/05/11 12:58:31;;;;;;;3.20;2.90;;;28.40;71.30;;;;;;5014053;28;20402;-71
2022/05/11 13:01:02;;;;;;;2.57;2.37;;;28.70;71.80;;;;;;5013891;28;20505;-71
2022/05/11 13:03:36;;;;;;;2.57;2.37;;;28.80;70.90;;;;;;5013585;28;20215;-71
2022/05/11 13:06:07;;;;;;;2.30;2.13;;;28.80;70.60;;;;;;5014004;28;20445;-70
2022/05/11 13:08:41;;;;;;;3.00;2.77;;;28.80;70.70;;;;;;5014005;28;20819;-71
2022/05/11 13:11:09;;;;;;;6.23;5.37;;;29.00;70.10;;;;;;4994057;28;20924;-70
2022/05/11 13:13:35;;;;;;;3.37;3.03;;;29.00;70.80;;;;;;4994214;28;20759;-71
2022/05/11 13:16:10;;;;;;;2.80;2.60;;;28.70;69.90;;;;;;4993846;28;20490;-70
2022/05/11 13:18:36;;;;;;;2.43;2.23;;;28.60;70.40;;;;;;4994064;28;20175;-70
2022/05/11 13:21:05;;;;;;;3.50;2.73;;;28.50;69.70;;;;;;4994046;28;20454;-70
2022/05/11 13:23:48;;;;;;;2.43;2.23;;;28.50;71.20;;;;;;4993858;28;20184;-70
2022/05/11 13:26:35;;;;;;;4.90;4.40;;;28.60;70.90;;;;;;4993719;28;20458;-70
2022/05/11 13:29:20;;;;;;;5.43;4.20;;;28.40;71.00;;;;;;4976444;28;20502;-71
2022/05/11 13:32:00;;;;;;;2.67;2.47;;;28.80;70.80;;;;;;4992341;28;20439;-70
2022/05/11 13:34:34;;;;;;;8.73;7.57;;;28.90;69.50;;;;;;4993748;28;20407;-71
2022/05/11 13:37:01;;;;;;;2.20;2.10;;;28.90;69.80;;;;;;4999832;28;20409;-70
2022/05/11 13:39:37;;;;;;;17.93;15.13;;;28.50;68.60;;;;;;5013231;28;20398;-71
2022/05/11 13:42:21;;;;;;;7.20;6.13;;;28.50;70.40;;;;;;5013133;28;20548;-71
2022/05/11 13:45:08;;;;;;;8.90;6.90;;;28.60;70.30;;;;;;4985517;28;20431;-72